createdAt,value
2023-05-05T00:00:22.313Z,72.92
2023-05-05T00:01:22.300Z,73.43
2023-05-05T00:02:22.293Z,73.43
2023-05-05T00:03:22.369Z,73.13
2023-05-05T00:04:22.401Z,73.23
2023-05-05T00:05:22.267Z,72.92
2023-05-05T00:06:22.226Z,73.23
2023-05-05T00:07:22.235Z,73.23
2023-05-05T00:08:22.199Z,73.94
2023-05-05T00:09:22.235Z,74.08
2023-05-05T00:10:22.206Z,74.38
2023-05-05T00:11:22.201Z,74.28
2023-05-05T00:12:22.167Z,74.25
2023-05-05T00:13:22.182Z,74.25
2023-05-05T00:14:22.138Z,75.37
2023-05-05T00:15:22.176Z,75.47
2023-05-05T00:16:22.162Z,75.27
2023-05-05T00:17:22.135Z,75.57
2023-05-05T00:18:22.100Z,75.51
2023-05-05T00:19:22.105Z,75.92
2023-05-05T00:20:22.100Z,76.01
2023-05-05T00:21:22.079Z,76.56
2023-05-05T00:22:22.050Z,76.76
2023-05-05T00:23:22.071Z,76.66
2023-05-05T00:24:22.037Z,76.76
2023-05-05T00:25:22.054Z,76.46
2023-05-05T00:26:22.003Z,76.35
2023-05-05T00:27:22.024Z,76.35
2023-05-05T00:28:22.000Z,76.25
2023-05-05T00:29:22.001Z,76.25
2023-05-05T00:30:21.976Z,76.05
2023-05-05T00:31:21.993Z,76.05
2023-05-05T00:32:22.002Z,76.25
2023-05-05T00:33:21.964Z,76.15
2023-05-05T00:34:21.934Z,76.76
2023-05-05T00:35:21.971Z,76.76
2023-05-05T00:36:21.910Z,76.76
2023-05-05T00:37:21.928Z,76.39
2023-05-05T00:38:21.888Z,76.50
2023-05-05T00:39:21.900Z,76.39
2023-05-05T00:40:21.879Z,76.59
2023-05-05T00:41:21.877Z,76.59
2023-05-05T00:42:21.844Z,76.84
2023-05-05T00:43:21.849Z,77.14
2023-05-05T00:44:21.814Z,77.25
2023-05-05T00:45:21.856Z,77.45
2023-05-05T00:46:21.827Z,77.65
2023-05-05T00:47:21.803Z,77.96
2023-05-05T00:48:21.790Z,78.27
2023-05-05T00:49:21.835Z,78.06
2023-05-05T00:50:21.800Z,78.37
2023-05-05T00:51:21.789Z,78.27
2023-05-05T00:52:21.732Z,78.16
2023-05-05T00:53:21.762Z,78.27
2023-05-05T00:54:21.728Z,78.47
2023-05-05T00:55:21.761Z,78.06
2023-05-05T00:56:21.722Z,78.06
2023-05-05T00:57:21.710Z,78.06
2023-05-05T00:58:21.680Z,77.96
2023-05-05T00:59:21.688Z,78.16
2023-05-05T01:00:21.668Z,77.96
2023-05-05T01:01:21.707Z,78.37
2023-05-05T01:02:21.622Z,78.06
2023-05-05T01:03:21.686Z,77.75
2023-05-05T01:04:21.606Z,77.75
2023-05-05T01:05:21.687Z,77.51
2023-05-05T01:06:21.596Z,77.62
2023-05-05T01:07:21.598Z,77.62
2023-05-05T01:08:21.574Z,77.51
2023-05-05T01:09:21.573Z,77.51
2023-05-05T01:10:21.575Z,77.51
2023-05-05T01:11:21.568Z,77.51
2023-05-05T01:12:21.515Z,78.16
2023-05-05T01:13:21.533Z,77.96
2023-05-05T01:14:21.501Z,78.27
2023-05-05T01:15:21.516Z,78.16
2023-05-05T01:16:21.565Z,78.27
2023-05-05T01:17:21.492Z,78.37
2023-05-05T01:18:21.472Z,78.47
2023-05-05T01:19:21.481Z,78.57
2023-05-05T01:20:21.434Z,78.57
2023-05-05T01:21:21.506Z,78.47
2023-05-05T01:22:21.408Z,78.41
2023-05-05T01:23:21.420Z,78.61
2023-05-05T01:24:21.407Z,79.32
2023-05-05T01:25:21.415Z,79.02
2023-05-05T01:26:21.360Z,79.22
2023-05-05T01:27:21.406Z,79.46
2023-05-05T01:28:21.345Z,79.46
2023-05-05T01:29:21.355Z,79.25
2023-05-05T01:30:21.328Z,79.05
2023-05-05T01:31:21.360Z,79.57
2023-05-05T01:32:21.311Z,79.66
2023-05-05T01:33:21.338Z,79.66
2023-05-05T01:34:21.276Z,79.36
2023-05-05T01:35:21.294Z,79.36
2023-05-05T01:36:21.261Z,79.66
2023-05-05T01:37:21.265Z,79.57
2023-05-05T01:38:21.250Z,79.87
2023-05-05T01:39:21.252Z,79.97
2023-05-05T01:40:21.223Z,80.07
2023-05-05T01:41:21.232Z,80.18
2023-05-05T01:42:21.189Z,80.38
2023-05-05T01:43:21.251Z,80.07
2023-05-05T01:44:21.159Z,80.07
2023-05-05T01:45:21.184Z,80.07
2023-05-05T01:46:21.171Z,80.07
2023-05-05T01:47:21.169Z,80.07
2023-05-05T01:48:21.165Z,79.77
2023-05-05T01:49:21.133Z,79.77
2023-05-05T01:50:21.110Z,79.97
2023-05-05T01:51:21.114Z,80.38
2023-05-05T01:52:21.074Z,80.18
2023-05-05T01:53:21.103Z,80.38
2023-05-05T01:54:21.077Z,80.58
2023-05-05T01:55:21.058Z,80.69
2023-05-05T01:56:21.070Z,81.30
2023-05-05T01:57:21.024Z,81.20
2023-05-05T01:58:21.045Z,81.40
2023-05-05T01:59:21.045Z,81.71
2023-05-05T02:00:21.020Z,81.85
2023-05-05T02:01:21.041Z,82.05
2023-05-05T02:02:21.045Z,82.46
2023-05-05T02:03:21.137Z,82.67
2023-05-05T02:04:21.003Z,82.46
2023-05-05T02:05:20.942Z,82.36
2023-05-05T02:06:20.953Z,82.46
2023-05-05T02:07:20.917Z,81.85
2023-05-05T02:08:20.936Z,81.95
2023-05-05T02:09:20.918Z,82.15
2023-05-05T02:10:20.911Z,82.36
2023-05-05T02:11:20.876Z,82.46
2023-05-05T02:12:20.887Z,82.56
2023-05-05T02:13:20.964Z,82.46
2023-05-05T02:14:20.895Z,82.67
2023-05-05T02:15:20.836Z,82.05
2023-05-05T02:16:20.876Z,81.65
2023-05-05T02:17:20.810Z,81.44
2023-05-05T02:18:20.831Z,81.24
2023-05-05T02:19:20.802Z,81.24
2023-05-05T02:20:20.803Z,81.48
2023-05-05T02:21:20.775Z,81.48
2023-05-05T02:22:20.814Z,81.58
2023-05-05T02:23:20.766Z,82.09
2023-05-05T02:24:20.780Z,82.60
2023-05-05T02:25:20.720Z,82.70
2023-05-05T02:26:20.744Z,82.29
2023-05-05T02:27:20.703Z,82.50
2023-05-05T02:28:20.719Z,82.60
2023-05-05T02:29:20.712Z,82.50
2023-05-05T02:30:20.712Z,82.70
2023-05-05T02:31:20.735Z,82.60
2023-05-05T02:32:20.735Z,83.05
2023-05-05T02:33:20.652Z,83.25
2023-05-05T02:34:20.670Z,83.25
2023-05-05T02:35:20.616Z,83.56
2023-05-05T02:36:20.638Z,84.07
2023-05-05T02:37:20.598Z,84.17
2023-05-05T02:38:20.612Z,83.76
2023-05-05T02:39:20.608Z,83.46
2023-05-05T02:40:20.608Z,83.25
2023-05-05T02:41:20.579Z,83.56
2023-05-05T02:42:20.569Z,83.46
2023-05-05T02:43:20.553Z,83.46
2023-05-05T02:44:20.573Z,83.36
2023-05-05T02:45:20.511Z,83.66
2023-05-05T02:46:20.554Z,84.07
2023-05-05T02:47:20.524Z,83.87
2023-05-05T02:48:20.526Z,83.87
2023-05-05T02:49:20.480Z,84.17
2023-05-05T02:50:20.497Z,84.17
2023-05-05T02:51:20.452Z,84.38
2023-05-05T02:52:20.468Z,84.48
2023-05-05T02:53:20.429Z,84.48
2023-05-05T02:54:20.463Z,84.63
2023-05-05T02:55:20.409Z,85.30
2023-05-05T02:56:20.431Z,84.72
2023-05-05T02:57:20.397Z,85.14
2023-05-05T02:58:20.401Z,85.34
2023-05-05T02:59:20.398Z,85.64
2023-05-05T03:00:20.387Z,85.85
2023-05-05T03:01:20.401Z,85.55
2023-05-05T03:02:20.405Z,85.44
2023-05-05T03:03:20.398Z,85.24
2023-05-05T03:04:20.350Z,85.30
2023-05-05T03:05:20.315Z,85.30
2023-05-05T03:06:20.312Z,84.69
2023-05-05T03:07:20.282Z,85.30
2023-05-05T03:08:20.293Z,85.40
2023-05-05T03:09:20.252Z,84.89
2023-05-05T03:10:20.298Z,85.14
2023-05-05T03:11:20.244Z,85.24
2023-05-05T03:12:20.246Z,85.44
2023-05-05T03:13:20.209Z,85.75
2023-05-05T03:14:20.230Z,85.55
2023-05-05T03:15:20.207Z,85.44
2023-05-05T03:16:20.245Z,85.44
2023-05-05T03:17:20.230Z,85.75
2023-05-05T03:18:20.188Z,85.75
2023-05-05T03:19:20.180Z,85.75
2023-05-05T03:20:20.184Z,85.64
2023-05-05T03:21:20.132Z,85.75
2023-05-05T03:22:20.151Z,85.85
2023-05-05T03:23:20.101Z,85.64
2023-05-05T03:24:20.107Z,85.75
2023-05-05T03:25:20.101Z,85.55
2023-05-05T03:26:20.108Z,85.85
2023-05-05T03:27:20.076Z,85.96
2023-05-05T03:28:20.078Z,86.16
2023-05-05T03:29:20.050Z,86.05
2023-05-05T03:30:20.076Z,86.05
2023-05-05T03:31:20.096Z,86.05
2023-05-05T03:32:20.037Z,85.85
2023-05-05T03:33:19.995Z,85.96
2023-05-05T03:34:20.006Z,85.96
2023-05-05T03:35:20.017Z,86.16
2023-05-05T03:36:19.992Z,86.05
2023-05-05T03:37:19.957Z,85.85
2023-05-05T03:38:19.989Z,85.75
2023-05-05T03:39:19.981Z,85.96
2023-05-05T03:40:21.042Z,86.26
2023-05-05T03:41:19.930Z,86.05
2023-05-05T03:42:19.915Z,86.36
2023-05-05T03:43:19.914Z,86.67
2023-05-05T03:44:19.885Z,86.77
2023-05-05T03:45:19.916Z,86.26
2023-05-05T03:46:19.901Z,86.26
2023-05-05T03:47:19.882Z,86.46
2023-05-05T03:48:19.854Z,86.77
2023-05-05T03:49:19.854Z,86.36
2023-05-05T03:50:19.837Z,86.16
2023-05-05T03:51:19.859Z,86.36
2023-05-05T03:52:19.805Z,86.88
2023-05-05T03:53:19.823Z,86.67
2023-05-05T03:54:19.780Z,86.67
2023-05-05T03:55:19.797Z,86.77
2023-05-05T03:56:19.760Z,86.67
2023-05-05T03:57:19.831Z,86.71
2023-05-05T03:58:19.732Z,86.67
2023-05-05T03:59:19.833Z,86.61
2023-05-05T04:00:19.718Z,87.02
2023-05-05T04:01:19.729Z,87.53
2023-05-05T04:02:19.747Z,87.43
2023-05-05T04:03:19.859Z,87.38
2023-05-05T04:04:19.717Z,87.29
2023-05-05T04:05:19.692Z,86.98
2023-05-05T04:06:19.658Z,87.08
2023-05-05T04:07:19.667Z,87.08
2023-05-05T04:08:19.634Z,86.46
2023-05-05T04:09:19.663Z,86.57
2023-05-05T04:10:19.607Z,86.67
2023-05-05T04:11:19.646Z,86.77
2023-05-05T04:12:19.590Z,87.08
2023-05-05T04:13:19.616Z,86.88
2023-05-05T04:14:19.566Z,86.98
2023-05-05T04:15:19.658Z,87.18
2023-05-05T04:16:19.622Z,87.08
2023-05-05T04:17:19.567Z,87.59
2023-05-05T04:18:19.527Z,87.29
2023-05-05T04:19:19.531Z,87.18
2023-05-05T04:20:19.533Z,87.08
2023-05-05T04:21:19.529Z,87.18
2023-05-05T04:22:19.481Z,87.29
2023-05-05T04:23:19.497Z,87.29
2023-05-05T04:24:19.465Z,87.29
2023-05-05T04:25:19.477Z,87.18
2023-05-05T04:26:19.436Z,86.98
2023-05-05T04:27:19.465Z,86.77
2023-05-05T04:28:21.068Z,86.98
2023-05-05T04:29:19.449Z,86.88
2023-05-05T04:30:19.404Z,87.08
2023-05-05T04:31:19.430Z,87.08
2023-05-05T04:32:19.473Z,87.08
2023-05-05T04:33:19.401Z,87.29
2023-05-05T04:34:19.347Z,87.38
2023-05-05T04:35:19.362Z,87.38
2023-05-05T04:36:19.336Z,87.38
2023-05-05T04:37:19.349Z,87.38
2023-05-05T04:38:19.386Z,87.38
2023-05-05T04:39:19.368Z,87.29
2023-05-05T04:40:19.313Z,87.04
2023-05-05T04:41:19.296Z,86.63
2023-05-05T04:42:19.269Z,86.53
2023-05-05T04:43:19.288Z,86.94
2023-05-05T04:44:19.265Z,87.14
2023-05-05T04:45:19.283Z,86.43
2023-05-05T04:46:19.289Z,86.08
2023-05-05T04:47:19.248Z,85.88
2023-05-05T04:48:19.201Z,85.77
2023-05-05T04:49:19.239Z,85.77
2023-05-05T04:50:19.177Z,85.47
2023-05-05T04:51:19.216Z,85.32
2023-05-05T04:52:19.162Z,84.91
2023-05-05T04:53:19.175Z,84.57
2023-05-05T04:54:19.140Z,84.47
2023-05-05T04:55:19.148Z,84.16
2023-05-05T04:56:19.126Z,84.06
2023-05-05T04:57:19.149Z,84.01
2023-05-05T04:58:19.117Z,84.01
2023-05-05T04:59:19.112Z,83.71
2023-05-05T05:00:19.102Z,83.30
2023-05-05T05:01:19.097Z,83.16
2023-05-05T05:02:19.132Z,82.86
2023-05-05T05:03:19.128Z,82.86
2023-05-05T05:04:19.058Z,83.06
2023-05-05T05:05:19.039Z,83.20
2023-05-05T05:06:19.001Z,83.30
2023-05-05T05:07:19.026Z,83.40
2023-05-05T05:08:18.990Z,83.40
2023-05-05T05:09:19.017Z,83.61
2023-05-05T05:10:18.987Z,83.57
2023-05-05T05:11:18.983Z,83.57
2023-05-05T05:12:18.940Z,83.57
2023-05-05T05:13:18.989Z,83.26
2023-05-05T05:14:18.931Z,83.16
2023-05-05T05:15:18.951Z,83.02
2023-05-05T05:16:18.944Z,82.92
2023-05-05T05:17:18.910Z,82.71
2023-05-05T05:18:18.874Z,82.82
2023-05-05T05:19:18.890Z,82.92
2023-05-05T05:20:18.863Z,82.82
2023-05-05T05:21:18.897Z,82.61
2023-05-05T05:22:18.849Z,82.37
2023-05-05T05:23:18.842Z,82.47
2023-05-05T05:24:18.820Z,82.68
2023-05-05T05:25:18.824Z,82.57
2023-05-05T05:26:18.786Z,82.68
2023-05-05T05:27:18.831Z,82.88
2023-05-05T05:28:18.774Z,82.68
2023-05-05T05:29:18.783Z,82.47
2023-05-05T05:30:18.753Z,82.47
2023-05-05T05:31:18.762Z,82.47
2023-05-05T05:32:18.854Z,82.78
2023-05-05T05:33:18.769Z,82.84
2023-05-05T05:34:18.703Z,82.64
2023-05-05T05:35:18.720Z,82.09
2023-05-05T05:36:18.680Z,81.68
2023-05-05T05:37:18.703Z,81.65
2023-05-05T05:38:18.694Z,81.44
2023-05-05T05:39:18.673Z,81.13
2023-05-05T05:40:18.638Z,80.90
2023-05-05T05:41:18.651Z,80.24
2023-05-05T05:42:18.618Z,79.84
2023-05-05T05:43:18.671Z,78.72
2023-05-05T05:44:18.596Z,78.82
2023-05-05T05:45:18.614Z,79.13
2023-05-05T05:46:18.598Z,79.23
2023-05-05T05:47:18.610Z,79.27
2023-05-05T05:48:18.580Z,79.13
2023-05-05T05:49:18.575Z,78.62
2023-05-05T05:50:18.532Z,78.68
2023-05-05T05:51:18.546Z,78.48
2023-05-05T05:52:18.527Z,78.58
2023-05-05T05:53:18.549Z,78.28
2023-05-05T05:54:18.492Z,77.63
2023-05-05T05:55:18.505Z,76.88
2023-05-05T05:56:18.471Z,76.58
2023-05-05T05:57:18.477Z,76.24
2023-05-05T05:58:18.476Z,75.73
2023-05-05T05:59:18.477Z,75.43
2023-05-05T06:00:18.442Z,74.82
2023-05-05T06:01:18.449Z,75.52
2023-05-05T06:02:18.452Z,75.73
2023-05-05T06:03:18.674Z,75.52
2023-05-05T06:04:18.423Z,76.03
2023-05-05T06:05:18.391Z,75.93
2023-05-05T06:06:18.380Z,75.79
2023-05-05T06:07:18.394Z,75.39
2023-05-05T06:08:18.382Z,74.85
2023-05-05T06:09:18.327Z,74.54
2023-05-05T06:10:26.623Z,74.34
2023-05-05T06:11:18.321Z,73.80
2023-05-05T06:12:18.320Z,73.80
2023-05-05T06:13:18.337Z,73.90
2023-05-05T06:14:20.033Z,73.49
2023-05-05T06:15:18.292Z,73.70
2023-05-05T06:16:18.319Z,73.29
2023-05-05T06:17:18.253Z,73.60
2023-05-05T06:18:18.295Z,73.73
2023-05-05T06:19:18.243Z,74.24
2023-05-05T06:20:18.248Z,74.34
2023-05-05T06:21:18.202Z,74.88
2023-05-05T06:22:18.261Z,75.29
2023-05-05T06:23:18.191Z,75.49
2023-05-05T06:24:18.209Z,75.59
2023-05-05T06:25:18.189Z,75.29
2023-05-05T06:26:18.176Z,75.19
2023-05-05T06:27:18.157Z,75.29
2023-05-05T06:28:18.162Z,75.39
2023-05-05T06:29:18.146Z,75.49
2023-05-05T06:30:18.147Z,75.79
2023-05-05T06:31:18.210Z,76.10
2023-05-05T06:32:18.115Z,76.00
2023-05-05T06:33:18.099Z,75.76
2023-05-05T06:34:18.110Z,74.61
2023-05-05T06:35:18.054Z,74.41
2023-05-05T06:36:18.121Z,73.36
2023-05-05T06:37:18.044Z,73.02
2023-05-05T06:38:18.086Z,72.52
2023-05-05T06:39:18.048Z,71.97
2023-05-05T06:40:18.034Z,71.47
2023-05-05T06:41:18.001Z,71.03
2023-05-05T06:42:18.030Z,70.93
2023-05-05T06:43:17.993Z,70.39
2023-05-05T06:44:18.016Z,69.78
2023-05-05T06:45:17.958Z,69.45
2023-05-05T06:46:18.002Z,69.27
2023-05-05T06:47:17.956Z,69.89
2023-05-05T06:48:17.958Z,70.18
2023-05-05T06:49:17.949Z,69.78
2023-05-05T06:50:17.951Z,69.98
2023-05-05T06:51:17.910Z,69.78
2023-05-05T06:52:17.926Z,69.65
2023-05-05T06:53:17.877Z,69.34
2023-05-05T06:54:17.922Z,68.94
2023-05-05T06:55:17.872Z,68.51
2023-05-05T06:56:17.886Z,68.00
2023-05-05T06:57:17.860Z,67.66
2023-05-05T06:58:17.854Z,67.46
2023-05-05T06:59:17.850Z,67.16
2023-05-05T07:00:17.924Z,66.93
2023-05-05T07:01:17.857Z,66.49
2023-05-05T07:02:17.815Z,65.75
2023-05-05T07:03:17.896Z,65.35
2023-05-05T07:04:17.845Z,65.15
2023-05-05T07:05:17.756Z,64.75
2023-05-05T07:06:17.792Z,65.15
2023-05-05T07:07:17.740Z,65.25
2023-05-05T07:08:17.754Z,65.45
2023-05-05T07:09:17.760Z,65.22
2023-05-05T07:10:17.753Z,64.72
2023-05-05T07:11:19.020Z,64.48
2023-05-05T07:12:17.703Z,64.18
2023-05-05T07:13:17.791Z,63.54
2023-05-05T07:14:17.705Z,63.34
2023-05-05T07:15:28.190Z,63.34
2023-05-05T07:16:17.687Z,63.21
2023-05-05T07:17:17.676Z,63.21
2023-05-05T07:18:17.643Z,63.34
2023-05-05T07:19:17.684Z,63.45
2023-05-05T07:20:17.622Z,64.05
2023-05-05T07:21:17.589Z,63.95
2023-05-05T07:22:17.597Z,64.22
2023-05-05T07:23:17.564Z,63.71
2023-05-05T07:24:17.594Z,63.89
2023-05-05T07:25:17.557Z,64.12
2023-05-05T07:26:17.559Z,63.92
2023-05-05T07:27:17.525Z,64.52
2023-05-05T07:28:17.537Z,64.72
2023-05-05T07:29:17.522Z,64.32
2023-05-05T07:30:18.883Z,64.32
2023-05-05T07:31:17.478Z,64.02
2023-05-05T07:32:17.609Z,63.89
2023-05-05T07:33:17.458Z,63.59
2023-05-05T07:34:17.492Z,63.48
2023-05-05T07:35:17.454Z,64.49
2023-05-05T07:36:17.442Z,64.12
2023-05-05T07:37:17.421Z,64.42
2023-05-05T07:38:17.414Z,64.72
2023-05-05T07:39:17.424Z,64.19
2023-05-05T07:40:17.394Z,64.09
2023-05-05T07:41:17.389Z,63.99
2023-05-05T07:42:17.375Z,64.19
2023-05-05T07:43:17.351Z,64.29
2023-05-05T07:44:17.359Z,64.29
2023-05-05T07:45:17.323Z,64.19
2023-05-05T07:46:17.365Z,64.29
2023-05-05T07:47:17.288Z,63.68
2023-05-05T07:48:17.301Z,63.85
2023-05-05T07:49:17.281Z,63.45
2023-05-05T07:50:17.281Z,63.25
2023-05-05T07:51:17.250Z,63.85
2023-05-05T07:52:17.253Z,63.76
2023-05-05T07:53:17.233Z,63.85
2023-05-05T07:54:17.248Z,63.35
2023-05-05T07:55:17.204Z,63.73
2023-05-05T07:56:17.216Z,63.22
2023-05-05T07:57:17.185Z,63.02
2023-05-05T07:58:17.199Z,63.22
2023-05-05T07:59:17.170Z,63.22
2023-05-05T08:00:17.173Z,62.32
2023-05-05T08:01:17.130Z,62.62
2023-05-05T08:02:17.190Z,62.92
2023-05-05T08:03:17.202Z,62.62
2023-05-05T08:04:17.217Z,62.62
2023-05-05T08:05:17.086Z,63.12
2023-05-05T08:06:17.101Z,63.32
2023-05-05T08:07:17.064Z,62.59
2023-05-05T08:08:17.102Z,62.29
2023-05-05T08:09:17.070Z,62.39
2023-05-05T08:10:17.050Z,62.08
2023-05-05T08:11:17.028Z,61.88
2023-05-05T08:12:17.023Z,62.29
2023-05-05T08:13:17.082Z,62.79
2023-05-05T08:14:17.030Z,62.49
2023-05-05T08:15:16.967Z,62.59
2023-05-05T08:16:17.031Z,62.79
2023-05-05T08:17:16.973Z,62.49
2023-05-05T08:18:16.975Z,62.16
2023-05-05T08:19:27.667Z,61.96
2023-05-05T08:20:16.982Z,61.13
2023-05-05T08:21:16.905Z,60.82
2023-05-05T08:22:16.925Z,61.13
2023-05-05T08:23:16.892Z,60.72
2023-05-05T08:24:16.932Z,60.10
2023-05-05T08:25:16.863Z,60.36
2023-05-05T08:26:16.883Z,59.77
2023-05-05T08:27:16.839Z,59.46
2023-05-05T08:28:16.857Z,59.46
2023-05-05T08:29:16.858Z,59.36
2023-05-05T08:30:16.850Z,59.23
2023-05-05T08:31:16.828Z,59.00
2023-05-05T08:32:16.850Z,58.00
2023-05-05T08:33:16.889Z,58.30
2023-05-05T08:34:16.813Z,57.90
2023-05-05T08:35:16.820Z,58.11
2023-05-05T08:36:16.770Z,58.48
2023-05-05T08:37:16.745Z,58.07
2023-05-05T08:38:16.753Z,57.57
2023-05-05T08:39:16.729Z,56.87
2023-05-05T08:40:16.743Z,56.95
2023-05-05T08:41:16.679Z,56.22
2023-05-05T08:42:25.795Z,55.49
2023-05-05T08:43:16.668Z,54.79
2023-05-05T08:44:16.701Z,55.22
2023-05-05T08:45:16.659Z,55.52
2023-05-05T08:46:16.692Z,56.22
2023-05-05T08:47:16.628Z,55.29
2023-05-05T08:48:16.643Z,54.99
2023-05-05T08:49:16.624Z,55.12
2023-05-05T08:50:16.619Z,57.15
2023-05-05T08:51:16.580Z,56.85
2023-05-05T08:52:16.606Z,56.32
2023-05-05T08:53:16.571Z,56.52
2023-05-05T08:54:16.584Z,55.69
2023-05-05T08:55:16.550Z,55.79
2023-05-05T08:56:16.554Z,55.66
2023-05-05T08:57:16.520Z,55.27
2023-05-05T08:58:16.529Z,54.54
2023-05-05T08:59:16.493Z,54.84
2023-05-05T09:00:16.537Z,54.74
2023-05-05T09:01:16.486Z,55.14
2023-05-05T09:02:16.533Z,54.82
2023-05-05T09:03:16.584Z,54.02
2023-05-05T09:04:16.471Z,53.09
2023-05-05T09:05:16.458Z,53.19
2023-05-05T09:06:16.455Z,52.82
2023-05-05T09:07:16.422Z,53.52
2023-05-05T09:08:16.429Z,53.92
2023-05-05T09:09:16.392Z,53.92
2023-05-05T09:10:16.427Z,53.92
2023-05-05T09:11:16.371Z,53.42
2023-05-05T09:12:16.390Z,53.42
2023-05-05T09:13:16.391Z,53.02
2023-05-05T09:14:16.358Z,52.52
2023-05-05T09:15:16.384Z,52.82
2023-05-05T09:16:16.382Z,52.82
2023-05-05T09:17:16.310Z,53.42
2023-05-05T09:18:16.334Z,53.44
2023-05-05T09:19:16.292Z,53.84
2023-05-05T09:20:16.324Z,53.84
2023-05-05T09:21:16.295Z,52.92
2023-05-05T09:22:16.298Z,52.62
2023-05-05T09:23:16.266Z,53.54
2023-05-05T09:24:16.278Z,53.34
2023-05-05T09:25:16.310Z,53.64
2023-05-05T09:26:16.249Z,53.34
2023-05-05T09:27:16.209Z,53.14
2023-05-05T09:28:16.244Z,53.74
2023-05-05T09:29:16.203Z,53.64
2023-05-05T09:30:16.219Z,53.12
2023-05-05T09:31:16.437Z,53.69
2023-05-05T09:32:16.189Z,51.50
2023-05-05T09:33:16.186Z,50.67
2023-05-05T09:34:16.405Z,50.79
2023-05-05T09:35:16.151Z,50.47
2023-05-05T09:36:16.147Z,48.88
2023-05-05T09:37:16.130Z,49.75
2023-05-05T09:38:16.132Z,47.26
2023-05-05T09:39:16.094Z,46.76
2023-05-05T09:40:16.160Z,47.96
2023-05-05T09:41:16.075Z,47.26
2023-05-05T09:42:16.094Z,47.06
2023-05-05T09:43:16.053Z,46.76
2023-05-05T09:44:16.084Z,46.66
2023-05-05T09:45:22.562Z,46.16
2023-05-05T09:46:16.068Z,46.06
2023-05-05T09:47:28.528Z,45.96
2023-05-05T09:48:16.050Z,46.98
2023-05-05T09:49:16.012Z,47.98
2023-05-05T09:50:16.265Z,47.06
2023-05-05T09:51:15.968Z,47.58
2023-05-05T09:52:15.993Z,48.20
2023-05-05T09:53:15.935Z,48.60
2023-05-05T09:54:15.948Z,49.30
2023-05-05T09:55:15.947Z,48.00
2023-05-05T09:56:15.921Z,47.88
2023-05-05T09:57:15.901Z,45.64
2023-05-05T09:58:15.945Z,44.35
2023-05-05T09:59:15.876Z,44.12
2023-05-05T10:00:15.897Z,44.54
2023-05-05T10:01:15.896Z,44.42
2023-05-05T10:02:15.911Z,44.42
2023-05-05T10:03:15.837Z,45.42
2023-05-05T10:04:15.984Z,44.62
2023-05-05T10:05:15.851Z,44.94
2023-05-05T10:06:15.847Z,44.35
2023-05-05T10:07:15.779Z,43.87
2023-05-05T10:08:15.823Z,44.37
2023-05-05T10:09:15.780Z,45.18
2023-05-05T10:10:15.777Z,45.59
2023-05-05T10:11:15.795Z,45.17
2023-05-05T10:12:15.760Z,45.66
2023-05-05T10:13:15.824Z,45.89
2023-05-05T10:14:15.746Z,46.08
2023-05-05T10:15:15.720Z,45.78
2023-05-05T10:16:15.762Z,46.01
2023-05-05T10:17:15.685Z,46.50
2023-05-05T10:18:15.767Z,46.80
2023-05-05T10:19:15.664Z,47.10
2023-05-05T10:20:15.677Z,46.70
2023-05-05T10:21:15.670Z,46.38
2023-05-05T10:22:15.653Z,45.68
2023-05-05T10:23:15.644Z,45.68
2023-05-05T10:24:15.602Z,45.48
2023-05-05T10:25:15.616Z,45.59
2023-05-05T10:26:15.624Z,45.39
2023-05-05T10:27:15.596Z,45.09
2023-05-05T10:28:15.564Z,44.76
2023-05-05T10:29:15.584Z,44.67
2023-05-05T10:30:15.553Z,44.17
2023-05-05T10:31:25.230Z,44.37
2023-05-05T10:32:40.806Z,44.87
2023-05-05T10:33:30.927Z,45.04
2023-05-05T10:34:15.594Z,44.84
2023-05-05T10:35:15.535Z,44.74
2023-05-05T10:36:15.513Z,43.65
2023-05-05T10:37:15.494Z,42.65
2023-05-05T10:38:15.488Z,43.77
2023-05-05T10:39:15.482Z,43.25
2023-05-05T10:40:15.531Z,42.65
2023-05-05T10:41:15.460Z,42.45
2023-05-05T10:42:15.480Z,41.96
2023-05-05T10:43:15.437Z,42.23
2023-05-05T10:44:15.403Z,42.85
2023-05-05T10:45:15.444Z,43.03
2023-05-05T10:46:15.413Z,42.93
2023-05-05T10:47:15.419Z,42.53
2023-05-05T10:48:15.397Z,42.83
2023-05-05T10:49:15.392Z,42.55
2023-05-05T10:50:15.401Z,43.15
2023-05-05T10:51:23.925Z,44.24
2023-05-05T10:52:15.336Z,43.95
2023-05-05T10:53:15.331Z,44.05
2023-05-05T10:54:15.400Z,42.83
2023-05-05T10:55:15.312Z,42.63
2023-05-05T10:56:15.271Z,42.61
2023-05-05T10:57:15.305Z,41.00
2023-05-05T10:58:15.253Z,40.68
2023-05-05T10:59:15.276Z,39.69
2023-05-05T11:00:15.313Z,39.80
2023-05-05T11:01:15.270Z,40.12
2023-05-05T11:02:15.255Z,40.82
2023-05-05T11:03:15.327Z,40.90
2023-05-05T11:04:15.196Z,39.78
2023-05-05T11:05:15.378Z,38.79
2023-05-05T11:06:15.199Z,38.39
2023-05-05T11:07:15.269Z,38.29
2023-05-05T11:08:15.167Z,37.40
2023-05-05T11:09:15.168Z,37.71
2023-05-05T11:10:15.301Z,38.43
2023-05-05T11:11:15.142Z,38.33
2023-05-05T11:12:15.103Z,37.92
2023-05-05T11:13:15.163Z,37.51
2023-05-05T11:14:15.081Z,37.02
2023-05-05T11:15:15.106Z,37.83
2023-05-05T11:16:15.090Z,37.93
2023-05-05T11:17:15.090Z,37.93
2023-05-05T11:18:15.085Z,37.53
2023-05-05T11:19:15.078Z,37.75
2023-05-05T11:20:15.026Z,39.04
2023-05-05T11:21:15.067Z,38.54
2023-05-05T11:22:15.009Z,38.82
2023-05-05T11:23:16.635Z,39.42
2023-05-05T11:24:15.008Z,40.32
2023-05-05T11:25:14.997Z,39.62
2023-05-05T11:26:14.961Z,38.73
2023-05-05T11:27:14.968Z,39.12
2023-05-05T11:28:14.959Z,38.21
2023-05-05T11:29:15.014Z,36.72
2023-05-05T11:30:14.919Z,36.72
2023-05-05T11:31:14.998Z,36.32
2023-05-05T11:32:14.898Z,36.44
2023-05-05T11:33:14.905Z,37.23
2023-05-05T11:34:14.880Z,37.41
2023-05-05T11:35:14.928Z,36.62
2023-05-05T11:36:14.856Z,35.52
2023-05-05T11:37:14.868Z,35.84
2023-05-05T11:38:14.845Z,35.92
2023-05-05T11:39:14.842Z,35.92
2023-05-05T11:40:14.824Z,35.80
2023-05-05T11:41:14.826Z,34.61
2023-05-05T11:42:14.825Z,34.83
2023-05-05T11:43:14.836Z,35.34
2023-05-05T11:44:14.782Z,36.12
2023-05-05T11:45:14.810Z,36.82
2023-05-05T11:46:14.757Z,37.21
2023-05-05T11:47:14.771Z,36.50
2023-05-05T11:48:14.765Z,37.00
2023-05-05T11:49:14.740Z,36.22
2023-05-05T11:50:14.710Z,36.22
2023-05-05T11:51:14.758Z,36.52
2023-05-05T11:52:14.717Z,36.22
2023-05-05T11:53:14.686Z,36.72
2023-05-05T11:54:14.667Z,36.02
2023-05-05T11:55:14.676Z,35.91
2023-05-05T11:56:14.648Z,35.41
2023-05-05T11:57:14.670Z,36.30
2023-05-05T11:58:14.630Z,34.81
2023-05-05T11:59:14.639Z,35.63
2023-05-05T12:00:14.601Z,35.03
2023-05-05T12:01:14.629Z,35.71
2023-05-05T12:02:14.658Z,35.10
2023-05-05T12:03:14.733Z,34.99
2023-05-05T12:04:14.678Z,34.89
2023-05-05T12:05:14.582Z,34.89
2023-05-05T12:06:14.547Z,35.29
2023-05-05T12:07:14.552Z,34.80
2023-05-05T12:08:14.522Z,35.17
2023-05-05T12:09:14.563Z,34.58
2023-05-05T12:10:14.497Z,34.68
2023-05-05T12:11:14.511Z,35.19
2023-05-05T12:12:14.506Z,35.61
2023-05-05T12:13:14.512Z,36.21
2023-05-05T12:14:14.449Z,36.80
2023-05-05T12:15:14.490Z,36.32
2023-05-05T12:16:14.479Z,37.23
2023-05-05T12:17:14.443Z,37.04
2023-05-05T12:18:14.420Z,36.64
2023-05-05T12:19:14.431Z,37.63
2023-05-05T12:20:14.465Z,36.74
2023-05-05T12:21:14.418Z,35.94
2023-05-05T12:22:14.372Z,36.04
2023-05-05T12:23:14.381Z,35.64
2023-05-05T12:24:14.348Z,36.05
2023-05-05T12:25:14.366Z,35.34
2023-05-05T12:26:14.324Z,35.24
2023-05-05T12:27:14.362Z,35.14
2023-05-05T12:28:14.318Z,35.54
2023-05-05T12:29:14.325Z,35.56
2023-05-05T12:30:14.299Z,35.86
2023-05-05T12:31:14.537Z,36.46
2023-05-05T12:32:14.400Z,36.76
2023-05-05T12:33:14.307Z,36.64
2023-05-05T12:34:14.249Z,36.65
2023-05-05T12:35:14.489Z,36.85
2023-05-05T12:36:14.229Z,36.55
2023-05-05T12:37:14.242Z,36.16
2023-05-05T12:38:14.207Z,35.86
2023-05-05T12:39:14.238Z,35.86
2023-05-05T12:40:14.187Z,35.75
2023-05-05T12:41:14.205Z,35.47
2023-05-05T12:42:14.162Z,35.58
2023-05-05T12:43:14.174Z,36.18
2023-05-05T12:44:14.143Z,36.49
2023-05-05T12:45:14.189Z,36.39
2023-05-05T12:46:14.184Z,36.89
2023-05-05T12:47:14.171Z,36.89
2023-05-05T12:48:14.101Z,37.08
2023-05-05T12:49:14.146Z,37.68
2023-05-05T12:50:14.163Z,38.09
2023-05-05T12:51:14.116Z,39.06
2023-05-05T12:52:14.090Z,39.38